Time;durP1;ratioP1;P1;durP2;ratioP2;P2;SDS_P1;SDS_P2;PMS_P1;PMS_P2;Temp;Humidity;BMP_temperature;BMP_pressure;BME280_temperature;BME280_humidity;BME280_pressure;Samples;Min_cycle;Max_cycle;Signal;HPM_P1;HPM_P2
2022/10/05 00:01:00;;;;;;;22.63;10.82;;;;;;;13.89;100.00;101604.00;5073318;28;20403;-67
2022/10/05 00:03:40;;;;;;;21.88;10.23;;;;;;;13.89;100.00;101601.34;5074638;28;20079;-65
2022/10/05 00:06:08;;;;;;;22.70;10.10;;;;;;;13.88;100.00;101596.94;5070909;28;20032;-64
2022/10/05 00:08:34;;;;;;;23.42;10.48;;;;;;;13.87;100.00;101604.00;5074800;28;20482;-64
2022/10/05 00:10:59;;;;;;;22.88;10.13;;;;;;;13.85;100.00;101600.47;5074201;28;20040;-65
2022/10/05 00:13:28;;;;;;;21.77;10.00;;;;;;;13.85;100.00;101600.47;5074655;28;20029;-66
2022/10/05 00:16:03;;;;;;;25.73;10.93;;;;;;;13.85;100.00;101608.44;5074566;28;20472;-66
2022/10/05 00:18:28;;;;;;;24.13;10.27;;;;;;;13.82;100.00;101596.88;5074737;28;20029;-67
2022/10/05 00:20:53;;;;;;;22.58;10.68;;;;;;;13.81;100.00;101592.47;5074628;28;20108;-66
2022/10/05 00:23:24;;;;;;;23.85;11.45;;;;;;;13.79;100.00;101587.16;5074485;28;20380;-66
2022/10/05 00:25:50;;;;;;;22.73;10.88;;;;;;;13.79;100.00;101581.84;5074453;28;20025;-67
2022/10/05 00:28:29;;;;;;;22.55;11.00;;;;;;;13.76;100.00;101579.16;5074372;28;20112;-64
2022/10/05 00:30:58;;;;;;;23.55;10.80;;;;;;;13.75;100.00;101588.03;5074189;28;20032;-65
2022/10/05 00:33:25;;;;;;;23.08;11.02;;;;;;;13.76;100.00;101589.78;5074276;28;20474;-67
2022/10/05 00:35:50;;;;;;;23.50;11.40;;;;;;;13.71;100.00;101583.56;5074085;28;20090;-68
2022/10/05 00:38:16;;;;;;;23.73;11.57;;;;;;;13.71;100.00;101578.25;5074156;28;20020;-64
2022/10/05 00:40:44;;;;;;;22.48;10.93;;;;;;;13.70;100.00;101577.38;5074437;28;20090;-65
2022/10/05 00:43:28;;;;;;;22.45;11.40;;;;;;;13.69;100.00;101580.00;5073993;28;20092;-66
2022/10/05 00:46:14;;;;;;;23.27;11.85;;;;;;;13.69;100.00;101578.25;5072211;28;20028;-67
2022/10/05 00:48:51;;;;;;;24.08;11.35;;;;;;;13.67;100.00;101589.75;5070956;28;20038;-65
2022/10/05 00:51:28;;;;;;;23.67;11.50;;;;;;;13.68;100.00;101586.22;5073977;28;20029;-63
2022/10/05 00:54:00;;;;;;;23.40;11.18;;;;;;;13.66;100.00;101577.34;5073786;28;20032;-65
2022/10/05 00:56:34;;;;;;;23.42;11.15;;;;;;;13.64;100.00;101573.81;5073947;28;20050;-65
2022/10/05 00:59:21;;;;;;;23.80;11.75;;;;;;;13.61;100.00;101580.00;5074070;28;20059;-65
2022/10/05 01:02:06;;;;;;;23.23;11.38;;;;;;;13.62;100.00;101580.91;5071597;28;20395;-64
2022/10/05 01:04:52;;;;;;;23.65;11.55;;;;;;;13.62;100.00;101579.13;5070368;28;20025;-64
2022/10/05 01:07:30;;;;;;;23.63;11.50;;;;;;;13.58;100.00;101578.22;5073657;28;20024;-65
2022/10/05 01:10:14;;;;;;;23.17;11.77;;;;;;;13.59;100.00;101574.69;5072980;28;20403;-64
2022/10/05 01:12:58;;;;;;;23.90;11.90;;;;;;;13.56;100.00;101572.00;5071341;28;20081;-64
2022/10/05 01:15:31;;;;;;;22.10;11.45;;;;;;;13.55;100.00;101564.91;5072582;28;20024;-65
2022/10/05 01:18:23;;;;;;;24.48;11.60;;;;;;;13.54;100.00;101554.28;5072008;28;20497;-66
2022/10/05 01:21:10;;;;;;;25.57;11.70;;;;;;;13.54;100.00;101546.31;5072404;28;20028;-64
2022/10/05 01:23:54;;;;;;;25.27;11.35;;;;;;;13.52;100.00;101548.97;5070656;28;20391;-64
2022/10/05 01:26:35;;;;;;;23.17;11.80;;;;;;;13.50;100.00;101557.81;5073212;28;20021;-67
2022/10/05 01:29:22;;;;;;;23.23;11.43;;;;;;;13.50;100.00;101549.84;5070602;28;20032;-64
2022/10/05 01:31:58;;;;;;;22.92;11.02;;;;;;;13.45;100.00;101541.88;5073156;28;20028;-68
2022/10/05 01:34:34;;;;;;;24.40;11.45;;;;;;;13.45;100.00;101547.19;5069821;28;20057;-68
2022/10/05 01:37:15;;;;;;;23.73;11.27;;;;;;;13.45;100.00;101552.50;5072782;28;20483;-66
2022/10/05 01:39:43;;;;;;;23.90;11.30;;;;;;;13.44;100.00;101540.13;5073093;28;20038;-65
2022/10/05 01:42:26;;;;;;;24.23;11.60;;;;;;;13.44;100.00;101537.47;5073093;28;20024;-68
2022/10/05 01:45:30;;;;;;;23.50;11.48;;;;;;;13.45;100.00;101541.88;5069500;28;20497;-67
2022/10/05 01:48:07;;;;;;;22.63;11.48;;;;;;;13.46;100.00;101541.00;5069519;28;20420;-66
2022/10/05 01:51:01;;;;;;;24.38;11.60;;;;;;;13.44;100.00;101532.16;5073103;28;20167;-67
2022/10/05 01:53:33;;;;;;;22.95;11.43;;;;;;;13.39;100.00;101525.91;5069802;28;20032;-68
2022/10/05 01:56:17;;;;;;;22.75;11.32;;;;;;;13.43;100.00;101530.38;5073143;28;20047;-69
2022/10/05 01:58:54;;;;;;;23.10;11.10;;;;;;;13.39;100.00;101520.59;5073172;28;20024;-68
2022/10/05 02:01:44;;;;;;;22.33;11.00;;;;;;;13.38;100.00;101516.16;5068813;28;20017;-67
2022/10/05 02:04:18;;;;;;;22.65;11.20;;;;;;;13.38;100.00;101510.84;5072843;28;20601;-68
2022/10/05 02:06:47;;;;;;;22.90;11.77;;;;;;;13.36;100.00;101504.66;5072727;28;20029;-68
2022/10/05 02:09:25;;;;;;;23.27;11.77;;;;;;;13.39;100.00;101515.28;5072498;28;20116;-66
2022/10/05 02:11:57;;;;;;;22.80;11.05;;;;;;;13.36;100.00;101500.22;5069396;28;20194;-69
2022/10/05 02:14:31;;;;;;;22.90;11.20;;;;;;;13.37;100.00;101501.16;5072990;28;20421;-68
2022/10/05 02:17:00;;;;;;;22.27;10.75;;;;;;;13.38;100.00;101502.91;5072494;28;20077;-70
2022/10/05 02:19:45;;;;;;;22.85;10.93;;;;;;;13.41;100.00;101497.59;5072708;28;20036;-69
2022/10/05 02:22:32;;;;;;;23.73;10.77;;;;;;;13.43;100.00;101495.84;5072532;28;20395;-69
2022/10/05 02:25:13;;;;;;;22.75;10.75;;;;;;;13.40;100.00;101496.72;5066950;28;20028;-69
2022/10/05 02:28:04;;;;;;;23.15;10.88;;;;;;;13.46;100.00;101494.97;5076276;28;20051;-69
2022/10/05 02:30:36;;;;;;;21.95;10.90;;;;;;;13.46;100.00;101489.66;5032874;28;20554;-69
2022/10/05 02:33:17;;;;;;;23.83;10.55;;;;;;;13.46;100.00;101494.97;5034254;28;20088;-69
2022/10/05 02:35:43;;;;;;;21.98;9.98;;;;;;;13.47;100.00;101486.09;5030627;28;20389;-68
2022/10/05 02:38:18;;;;;;;22.10;10.35;;;;;;;13.50;100.00;101486.09;5034289;28;20105;-69
2022/10/05 02:41:00;;;;;;;21.75;10.23;;;;;;;13.51;100.00;101478.13;5030797;28;20077;-69
2022/10/05 02:43:39;;;;;;;22.65;10.50;;;;;;;13.50;100.00;101470.16;5034163;28;20519;-69
2022/10/05 02:46:20;;;;;;;23.30;10.40;;;;;;;13.50;100.00;101459.53;5034044;28;20483;-70
2022/10/05 02:49:07;;;;;;;22.48;10.27;;;;;;;13.48;100.00;101462.19;5030743;28;20053;-68
2022/10/05 02:51:51;;;;;;;22.35;10.07;;;;;;;13.45;100.00;101459.53;5033879;28;20041;-69
2022/10/05 02:54:37;;;;;;;20.92;10.10;;;;;;;13.47;100.00;101460.44;5030792;28;20044;-69
2022/10/05 02:57:25;;;;;;;22.15;9.90;;;;;;;13.45;100.00;101464.84;5033815;28;20180;-68
2022/10/05 03:00:05;;;;;;;22.58;9.88;;;;;;;13.44;100.00;101460.44;5023214;28;20042;-67
2022/10/05 03:03:04;;;;;;;21.90;10.30;;;;;;;13.39;100.00;101454.22;5031481;28;20381;-68
2022/10/05 03:05:36;;;;;;;23.70;9.95;;;;;;;13.41;100.00;101452.44;5030299;28;20068;-66
2022/10/05 03:08:04;;;;;;;21.63;9.87;;;;;;;13.33;100.00;101446.22;5060399;28;20495;-67
2022/10/05 03:10:59;;;;;;;21.55;9.80;;;;;;;13.31;100.00;101450.63;5071654;28;20055;-65
2022/10/05 03:13:56;;;;;;;23.48;10.60;;;;;;;13.28;100.00;101453.25;5075292;28;20112;-66
2022/10/05 03:16:43;;;;;;;22.52;9.90;;;;;;;13.26;100.00;101440.00;5075135;28;20024;-67
2022/10/05 03:19:37;;;;;;;21.75;9.77;;;;;;;13.22;100.00;101441.75;5072984;28;20024;-66
2022/10/05 03:22:20;;;;;;;22.05;10.13;;;;;;;13.22;100.00;101441.75;5072090;28;20028;-68
2022/10/05 03:25:14;;;;;;;23.58;9.88;;;;;;;13.20;100.00;101434.66;5075666;28;20021;-66
2022/10/05 03:27:48;;;;;;;22.67;9.65;;;;;;;13.21;100.00;101434.66;5073406;28;20055;-66
2022/10/05 03:30:29;;;;;;;21.52;9.68;;;;;;;13.19;100.00;101433.78;5075756;28;20139;-68
2022/10/05 03:33:19;;;;;;;22.55;10.02;;;;;;;13.20;100.00;101445.28;5075636;28;20082;-70
2022/10/05 03:36:03;;;;;;;23.25;10.07;;;;;;;13.18;100.00;101439.97;5073870;28;20081;-67
2022/10/05 03:38:53;;;;;;;22.63;10.38;;;;;;;13.19;100.00;101438.19;5070712;28;20024;-66
2022/10/05 03:41:35;;;;;;;22.33;10.48;;;;;;;13.18;100.00;101425.84;5074408;28;20029;-66
2022/10/05 03:44:19;;;;;;;21.83;10.25;;;;;;;13.17;100.00;101432.88;5071936;28;20027;-66
2022/10/05 03:47:23;;;;;;;21.70;10.35;;;;;;;13.21;100.00;101429.38;5073871;28;20037;-67
2022/10/05 03:50:26;;;;;;;22.67;10.52;;;;;;;13.17;100.00;101430.22;5073844;28;20024;-66
2022/10/05 03:53:14;;;;;;;22.38;10.05;;;;;;;13.16;100.00;101444.38;5074196;28;20056;-65
2022/10/05 03:55:44;;;;;;;21.90;10.25;;;;;;;13.18;100.00;101433.78;5072329;28;20033;-66
2022/10/05 03:58:18;;;;;;;22.05;10.30;;;;;;;13.19;100.00;101428.50;5074876;28;20074;-66
2022/10/05 04:00:47;;;;;;;21.75;10.20;;;;;;;13.21;100.00;101436.44;5074718;28;20464;-66
2022/10/05 04:03:24;;;;;;;22.85;10.38;;;;;;;13.21;100.00;101442.63;5074829;28;20032;-65
2022/10/05 04:05:59;;;;;;;22.50;9.82;;;;;;;13.27;100.00;101446.22;5071236;28;20077;-66
2022/10/05 04:08:33;;;;;;;21.90;10.32;;;;;;;13.21;100.00;101439.97;5071367;28;20501;-67
2022/10/05 04:11:04;;;;;;;22.45;10.40;;;;;;;13.24;100.00;101437.34;5074447;28;20051;-66
2022/10/05 04:13:39;;;;;;;21.95;10.43;;;;;;;13.21;100.00;101439.97;5074917;28;20078;-67
2022/10/05 04:16:11;;;;;;;22.83;10.82;;;;;;;13.22;100.00;101448.81;5074833;28;20028;-66
2022/10/05 04:18:44;;;;;;;23.33;10.90;;;;;;;13.19;100.00;101439.09;5074447;28;20099;-66
2022/10/05 04:21:21;;;;;;;21.88;10.80;;;;;;;13.23;100.00;101443.50;5074396;28;20039;-69
2022/10/05 04:23:54;;;;;;;22.33;10.82;;;;;;;13.20;100.00;101442.63;5074335;28;20107;-69
2022/10/05 04:26:24;;;;;;;;;;;;;;;13.29;100.00;101447.09;5071094;28;20021;-68
2022/10/05 04:28:59;;;;;;;23.10;10.65;;;;;;;13.15;100.00;101442.63;5070406;28;19912;-68
2022/10/05 04:31:59;;;;;;;22.45;10.82;;;;;;;13.14;100.00;101443.50;5070956;28;20028;-68
2022/10/05 04:34:30;;;;;;;23.75;11.07;;;;;;;13.13;100.00;101428.44;5032156;28;20042;-69
2022/10/05 04:37:03;;;;;;;23.52;10.77;;;;;;;13.13;100.00;101430.22;5031905;28;20038;-68
2022/10/05 04:39:50;;;;;;;23.10;10.82;;;;;;;13.09;100.00;101426.66;5031935;28;20478;-69
2022/10/05 04:42:28;;;;;;;22.52;10.68;;;;;;;13.10;100.00;101417.81;5031932;28;20029;-68
2022/10/05 04:45:03;;;;;;;23.30;10.25;;;;;;;13.15;100.00;101418.72;5029077;28;20051;-68
2022/10/05 04:47:40;;;;;;;23.15;10.52;;;;;;;13.10;100.00;101420.47;5031955;28;20416;-67
2022/10/05 04:50:33;;;;;;;21.92;9.77;;;;;;;13.12;100.00;101415.16;5030749;28;20033;-67
2022/10/05 04:53:15;;;;;;;22.63;9.75;;;;;;;13.16;100.00;101414.31;5032014;28;20037;-69
2022/10/05 04:56:11;;;;;;;21.05;9.35;;;;;;;13.19;100.00;101409.00;5031952;28;20037;-68
2022/10/05 04:59:02;;;;;;;20.45;9.35;;;;;;;13.18;100.00;101405.47;5031324;28;20084;-68
2022/10/05 05:01:52;;;;;;;21.50;8.85;;;;;;;13.30;100.00;101409.03;4953238;29;20043;-66
2022/10/05 05:04:28;;;;;;;20.90;8.43;;;;;;;13.26;100.00;101416.09;4953259;29;20470;-68
2022/10/05 05:07:24;;;;;;;20.45;8.38;;;;;;;13.30;100.00;101406.38;4953346;29;20118;-69
2022/10/05 05:10:27;;;;;;;19.77;8.10;;;;;;;13.31;100.00;101409.03;4950599;29;20538;-69
2022/10/05 05:13:21;;;;;;;20.75;8.05;;;;;;;13.33;100.00;101406.38;5011793;28;20042;-68
2022/10/05 05:15:58;;;;;;;21.02;8.07;;;;;;;13.29;100.00;101413.44;5007151;28;20346;-65
2022/10/05 05:18:46;;;;;;;20.17;8.57;;;;;;;13.28;100.00;101403.72;5011732;28;20034;-66
2022/10/05 05:21:29;;;;;;;20.55;8.27;;;;;;;13.27;100.00;101401.06;5008258;28;20042;-66
2022/10/05 05:24:29;;;;;;;20.27;8.50;;;;;;;13.28;100.00;101411.69;5011625;28;20408;-66
2022/10/05 05:27:00;;;;;;;20.60;8.50;;;;;;;13.30;100.00;101409.03;5011563;28;20026;-66
2022/10/05 05:29:49;;;;;;;21.02;8.57;;;;;;;13.27;100.00;101404.59;5011460;28;20185;-66
2022/10/05 05:32:22;;;;;;;20.42;8.10;;;;;;;13.19;100.00;101401.94;5011376;28;20065;-65
2022/10/05 05:35:01;;;;;;;;;;;;;;;13.28;100.00;101400.16;5007777;28;20046;-62
2022/10/05 05:37:52;;;;;;;21.60;8.43;;;;;;;13.21;100.00;101397.50;5014482;28;19920;-62
2022/10/05 05:40:26;;;;;;;20.30;8.02;;;;;;;13.19;100.00;101395.72;5070501;28;20055;-63
2022/10/05 05:42:58;;;;;;;20.27;8.48;;;;;;;13.15;100.00;101399.25;5071563;28;20378;-62
2022/10/05 05:45:43;;;;;;;20.73;8.18;;;;;;;13.18;100.00;101396.63;5070611;28;20029;-65
2022/10/05 05:48:25;;;;;;;20.55;8.45;;;;;;;13.16;100.00;101380.66;5069752;28;20107;-63
2022/10/05 05:51:10;;;;;;;20.77;8.10;;;;;;;13.16;100.00;101398.38;5072120;28;20028;-62
2022/10/05 05:53:48;;;;;;;20.92;7.90;;;;;;;13.14;100.00;101385.09;5069745;28;20035;-63
2022/10/05 05:56:19;;;;;;;19.83;7.85;;;;;;;13.14;100.00;101381.56;5071142;28;20025;-62
2022/10/05 05:58:55;;;;;;;20.70;7.68;;;;;;;13.18;100.00;101384.22;5072121;28;20032;-62
2022/10/05 06:01:23;;;;;;;19.33;7.38;;;;;;;13.15;100.00;101373.59;5071447;28;20027;-64
2022/10/05 06:04:00;;;;;;;19.30;7.40;;;;;;;13.19;100.00;101377.13;5071402;28;20032;-67
2022/10/05 06:06:30;;;;;;;20.30;7.63;;;;;;;13.17;100.00;101387.75;5069971;28;20036;-63
2022/10/05 06:09:01;;;;;;;18.38;7.13;;;;;;;13.17;100.00;101384.22;5072007;28;20029;-61
2022/10/05 06:11:31;;;;;;;20.10;7.32;;;;;;;13.20;100.00;101376.25;5071128;28;20084;-62
2022/10/05 06:14:03;;;;;;;19.85;7.15;;;;;;;13.21;100.00;101376.28;5071250;28;20040;-62
2022/10/05 06:16:39;;;;;;;18.75;6.50;;;;;;;13.22;100.00;101379.81;5071596;28;20474;-68
2022/10/05 06:19:14;;;;;;;19.17;6.95;;;;;;;13.24;100.00;101383.38;5071779;28;20043;-63
2022/10/05 06:21:58;;;;;;;19.73;6.82;;;;;;;13.28;100.00;101376.28;5072175;28;20072;-62
2022/10/05 06:24:39;;;;;;;20.52;6.93;;;;;;;13.26;100.00;101381.59;5070773;28;20029;-62
2022/10/05 06:27:23;;;;;;;18.67;6.57;;;;;;;13.26;100.00;101381.59;5071526;28;20107;-62
2022/10/05 06:30:03;;;;;;;20.17;6.78;;;;;;;13.34;100.00;101370.97;5069198;28;20024;-63
2022/10/05 06:32:41;;;;;;;19.20;7.13;;;;;;;13.29;100.00;101375.41;5069187;28;20036;-64
2022/10/05 06:35:07;;;;;;;19.08;6.90;;;;;;;13.31;100.00;101378.94;5069835;28;20048;-63
2022/10/05 06:38:00;;;;;;;18.20;6.40;;;;;;;13.32;100.00;101376.28;5071428;28;20029;-62
2022/10/05 06:40:53;;;;;;;19.23;6.57;;;;;;;13.35;100.00;101375.44;5068807;28;20028;-62
2022/10/05 06:43:37;;;;;;;18.30;6.85;;;;;;;13.38;100.00;101375.44;5069303;28;20046;-65
2022/10/05 06:46:25;;;;;;;18.00;6.40;;;;;;;13.39;100.00;101382.53;5068902;28;20554;-63
2022/10/05 06:49:12;;;;;;;18.70;6.85;;;;;;;13.41;100.00;101384.31;5069027;28;20119;-64
2022/10/05 06:51:47;;;;;;;18.27;6.80;;;;;;;13.42;100.00;101378.09;5069766;28;20043;-63
2022/10/05 06:54:40;;;;;;;18.65;6.88;;;;;;;13.52;100.00;101388.75;5069387;28;20059;-63
2022/10/05 06:57:12;;;;;;;;;;;;;;;13.55;100.00;101389.63;5070382;28;20032;-62
2022/10/05 06:59:54;;;;;;;19.73;7.22;;;;;;;13.54;100.00;101382.56;5071415;28;19912;-61
2022/10/05 07:02:32;;;;;;;19.20;6.88;;;;;;;13.56;100.00;101388.75;5070322;28;20380;-62
2022/10/05 07:05:30;;;;;;;18.88;6.75;;;;;;;13.63;100.00;101388.72;5071419;28;20029;-61
2022/10/05 07:08:00;;;;;;;19.98;6.82;;;;;;;13.66;100.00;101391.38;5009042;28;20493;-62
2022/10/05 07:10:34;;;;;;;19.08;7.03;;;;;;;13.68;100.00;101387.84;5009388;28;20632;-61
2022/10/05 07:13:10;;;;;;;19.50;6.82;;;;;;;13.73;100.00;101387.84;5010321;28;20065;-62
2022/10/05 07:15:44;;;;;;;18.52;6.43;;;;;;;13.78;100.00;101386.97;5011129;28;20392;-64
2022/10/05 07:18:18;;;;;;;18.75;7.03;;;;;;;13.82;100.00;101382.56;5012388;28;20042;-62
2022/10/05 07:20:58;;;;;;;18.63;6.63;;;;;;;13.86;100.00;101392.28;5012867;28;20085;-62
2022/10/05 07:23:47;;;;;;;19.77;6.93;;;;;;;13.92;100.00;101384.31;5013165;28;20417;-64
2022/10/05 07:26:51;;;;;;;18.67;6.68;;;;;;;13.98;100.00;101382.50;5013610;28;20493;-63
2022/10/05 07:29:36;;;;;;;18.55;6.60;;;;;;;14.00;100.00;101394.06;4917153;29;20042;-62
2022/10/05 07:32:13;;;;;;;18.73;7.00;;;;;;;14.02;100.00;101387.81;4917027;29;20048;-62
2022/10/05 07:34:46;;;;;;;18.83;6.53;;;;;;;14.02;100.00;101394.91;4916999;29;20082;-62
2022/10/05 07:40:18;;;;;;;19.27;6.60;;;;;;;14.14;100.00;101394.91;4915499;29;20039;-62
2022/10/05 07:43:05;;;;;;;19.25;6.78;;;;;;;14.15;100.00;101390.47;4916913;29;20032;-62
2022/10/05 07:46:00;;;;;;;18.13;6.50;;;;;;;14.19;100.00;101395.78;4970500;28;20097;-62
2022/10/05 07:48:34;;;;;;;19.00;6.22;;;;;;;14.24;100.00;101393.09;4988060;28;20113;-62
2022/10/05 07:51:26;;;;;;;19.13;6.60;;;;;;;14.29;100.00;101397.53;4983520;28;20089;-62
2022/10/05 07:53:58;;;;;;;18.97;6.27;;;;;;;14.33;100.00;101400.19;4985730;28;20038;-62
2022/10/05 07:56:36;;;;;;;17.88;6.00;;;;;;;14.39;100.00;101405.50;4984935;28;20413;-63
2022/10/05 07:59:13;;;;;;;19.70;6.65;;;;;;;14.37;100.00;101396.63;4989596;28;20035;-62
2022/10/05 08:01:46;;;;;;;17.77;6.30;;;;;;;14.43;100.00;101392.19;5074126;28;20021;-62
2022/10/05 08:04:57;;;;;;;18.85;6.35;;;;;;;14.46;100.00;101397.50;5071112;28;20028;-63
2022/10/05 08:07:22;;;;;;;18.88;6.32;;;;;;;14.46;100.00;101396.63;5073056;28;20506;-62
2022/10/05 08:10:11;;;;;;;18.65;6.45;;;;;;;14.55;100.00;101401.03;5074209;28;20111;-62
2022/10/05 08:13:01;;;;;;;17.73;5.95;;;;;;;14.64;100.00;101395.69;5074716;28;20070;-62
2022/10/05 08:15:38;;;;;;;18.50;6.00;;;;;;;14.69;100.00;101391.22;5073076;28;20039;-63
2022/10/05 08:18:28;;;;;;;17.65;5.80;;;;;;;14.74;100.00;101383.25;5074602;28;20513;-62
2022/10/05 08:20:56;;;;;;;17.73;5.90;;;;;;;14.81;100.00;101390.31;5020870;28;20502;-62
2022/10/05 08:23:34;;;;;;;18.13;6.05;;;;;;;14.82;100.00;101381.41;5021868;28;20116;-63
2022/10/05 08:26:11;;;;;;;17.85;5.88;;;;;;;14.87;100.00;101366.31;5021854;28;20124;-62
2022/10/05 08:28:54;;;;;;;17.67;5.78;;;;;;;14.97;100.00;101376.03;5024618;28;20461;-63
2022/10/05 08:31:25;;;;;;;;;;;;;;;15.10;100.00;101360.88;5024404;28;20125;-64
2022/10/05 08:34:19;;;;;;;16.92;5.32;;;;;;;15.10;100.00;101374.19;5023203;28;19960;-62
2022/10/05 08:37:01;;;;;;;16.83;5.50;;;;;;;15.15;100.00;101369.69;4984543;28;20418;-67
2022/10/05 08:39:33;;;;;;;18.13;5.97;;;;;;;15.21;100.00;101366.13;4983168;28;20034;-67
2022/10/05 08:42:04;;;;;;;;;;;;;;;15.37;100.00;101374.03;4981818;28;20482;-63
2022/10/05 08:44:35;;;;;;;17.83;5.57;;;;;;;15.25;100.00;101361.66;4981827;28;20011;-63
2022/10/05 08:47:42;;;;;;;16.70;5.53;;;;;;;15.32;100.00;101358.94;4984003;28;20093;-69
2022/10/05 08:50:30;;;;;;;17.15;5.43;;;;;;;15.38;100.00;101365.09;4896764;29;20127;-68
2022/10/05 08:53:13;;;;;;;17.42;5.30;;;;;;;15.49;100.00;101360.59;4895733;29;20373;-62
2022/10/05 08:55:58;;;;;;;17.30;5.68;;;;;;;15.44;100.00;101367.75;4896504;29;20043;-63
2022/10/05 08:58:56;;;;;;;17.83;5.22;;;;;;;15.54;100.00;101368.53;4908919;29;20044;-66
2022/10/05 09:02:04;;;;;;;17.40;5.60;;;;;;;15.52;100.00;101361.47;4911215;29;20031;-67
2022/10/05 09:04:47;;;;;;;16.88;5.20;;;;;;;15.59;100.00;101361.41;4915064;29;20024;-64
2022/10/05 09:07:31;;;;;;;17.65;5.25;;;;;;;15.71;100.00;101350.63;4915326;29;20048;-63
2022/10/05 09:10:26;;;;;;;16.42;5.28;;;;;;;15.85;100.00;101353.22;4911887;29;20063;-71
2022/10/05 09:13:00;;;;;;;16.77;5.20;;;;;;;15.91;100.00;101353.16;4917288;28;20033;-70
2022/10/05 09:15:58;;;;;;;17.52;5.35;;;;;;;15.96;100.00;101350.44;4971695;28;20482;-68
2022/10/05 09:19:06;;;;;;;14.75;5.13;;;;;;;16.04;100.00;101348.59;4969647;28;20118;-70
2022/10/05 09:21:55;;;;;;;14.63;5.05;;;;;;;16.11;100.00;101344.06;5048750;28;20043;-70
2022/10/05 09:24:43;;;;;;;16.52;5.00;;;;;;;16.22;100.00;101347.50;5071288;28;20491;-73
2022/10/05 09:27:14;;;;;;;15.02;4.60;;;;;;;16.25;100.00;101346.56;5071704;28;20029;-69
2022/10/05 09:30:17;;;;;;;14.40;4.70;;;;;;;16.30;100.00;101340.28;5071898;28;20025;-72
2022/10/05 09:33:04;;;;;;;14.48;4.80;;;;;;;16.31;100.00;101341.16;5071527;28;20048;-70
2022/10/05 09:35:51;;;;;;;16.65;4.80;;;;;;;16.39;100.00;101337.50;5071649;28;20024;-69
2022/10/05 09:38:28;;;;;;;16.30;5.07;;;;;;;16.48;100.00;101332.97;5072252;28;20096;-69
2022/10/05 09:41:24;;;;;;;15.43;4.70;;;;;;;16.51;100.00;101335.59;5071554;28;20031;-64
2022/10/05 09:44:20;;;;;;;15.02;4.85;;;;;;;16.58;100.00;101339.97;5071897;28;20070;-69
2022/10/05 09:47:07;;;;;;;15.15;4.85;;;;;;;16.66;100.00;101324.75;5072211;28;20024;-64
2022/10/05 09:50:05;;;;;;;15.55;4.90;;;;;;;16.71;100.00;101330.88;5070127;28;20032;-63
2022/10/05 09:52:36;;;;;;;15.68;4.80;;;;;;;16.67;100.00;101328.28;5070277;28;20032;-63
2022/10/05 09:55:24;;;;;;;17.05;4.70;;;;;;;16.68;100.00;101322.91;5071528;28;20032;-64
2022/10/05 09:58:01;;;;;;;14.65;4.93;;;;;;;16.73;100.00;101318.41;5071254;28;20083;-66
2022/10/05 10:00:40;;;;;;;15.75;4.88;;;;;;;16.82;100.00;101316.50;5071791;28;20020;-65
2022/10/05 10:03:42;;;;;;;16.63;5.10;;;;;;;16.94;100.00;101313.69;5068454;28;20028;-70
2022/10/05 10:06:36;;;;;;;15.23;4.90;;;;;;;17.07;100.00;101322.41;5068279;28;20033;-69
2022/10/05 10:09:38;;;;;;;15.90;4.90;;;;;;;17.07;100.00;101306.41;5072112;28;20107;-68
2022/10/05 10:12:06;;;;;;;15.85;5.03;;;;;;;17.24;100.00;101303.44;5072171;28;20044;-66
2022/10/05 10:15:00;;;;;;;13.85;4.45;;;;;;;17.35;100.00;101301.47;5072956;28;20032;-68
2022/10/05 10:17:56;;;;;;;14.25;4.35;;;;;;;17.40;100.00;101307.66;5071236;28;20043;-68
2022/10/05 10:20:35;;;;;;;16.35;4.80;;;;;;;17.58;100.00;101298.41;5070463;28;20399;-66
2022/10/05 10:23:32;;;;;;;13.57;4.30;;;;;;;17.77;100.00;101303.44;5072699;28;20024;-65
2022/10/05 10:26:19;;;;;;;12.40;4.30;;;;;;;17.94;100.00;101289.81;5071251;28;20029;-64
2022/10/05 10:29:03;;;;;;;13.93;4.25;;;;;;;18.18;100.00;101290.22;5069160;28;20036;-64
2022/10/05 10:31:56;;;;;;;13.38;4.20;;;;;;;18.64;100.00;101286.56;5072555;28;20072;-65
2022/10/05 10:34:53;;;;;;;14.68;4.35;;;;;;;18.88;100.00;101285.16;5070115;28;20036;-65
2022/10/05 10:37:38;;;;;;;15.27;4.30;;;;;;;19.33;100.00;101286.75;5069595;28;20025;-66
2022/10/05 10:40:22;;;;;;;13.40;4.28;;;;;;;19.07;100.00;101284.72;5072271;28;20033;-70
2022/10/05 10:43:05;;;;;;;14.70;4.30;;;;;;;18.76;100.00;101283.59;5069231;28;20107;-72
2022/10/05 10:45:55;;;;;;;15.30;4.50;;;;;;;19.23;100.00;101282.56;5072509;28;20117;-66
2022/10/05 10:48:29;;;;;;;12.80;4.20;;;;;;;19.28;100.00;101283.28;5073727;28;20021;-72
2022/10/05 10:51:18;;;;;;;15.57;4.30;;;;;;;19.21;100.00;101265.59;5076126;28;20051;-71
2022/10/05 10:54:17;;;;;;;12.98;4.30;;;;;;;19.07;100.00;101268.66;5073410;28;20031;-70
2022/10/05 10:56:52;;;;;;;14.07;3.97;;;;;;;19.19;100.00;101265.66;5070613;28;20021;-66
2022/10/05 10:59:29;;;;;;;11.82;4.00;;;;;;;19.21;100.00;101262.94;5072710;28;20463;-65
2022/10/05 11:02:19;;;;;;;13.85;4.07;;;;;;;19.51;100.00;101272.00;5073025;28;20032;-65
2022/10/05 11:05:00;;;;;;;10.15;3.70;;;;;;;19.52;100.00;101249.63;5073618;28;20487;-65
2022/10/05 11:07:55;;;;;;;14.85;4.15;;;;;;;19.41;100.00;101263.34;5074808;28;20060;-64
2022/10/05 11:10:27;;;;;;;11.98;4.10;;;;;;;19.28;100.00;101260.06;5011369;28;20056;-72
2022/10/05 11:13:15;;;;;;;13.70;3.80;;;;;;;19.38;100.00;101258.03;5012649;28;20041;-72
2022/10/05 11:16:06;;;;;;;13.23;3.80;;;;;;;19.55;100.00;101251.34;5011041;28;20134;-71
2022/10/05 11:19:11;;;;;;;13.90;4.03;;;;;;;19.49;100.00;101257.75;5011940;28;20029;-73
2022/10/05 11:21:54;;;;;;;11.80;3.72;;;;;;;19.52;100.00;101249.63;5013129;28;20045;-72
2022/10/05 11:24:53;;;;;;;13.30;3.70;;;;;;;19.24;100.00;101249.47;5012898;28;20167;-63
2022/10/05 11:27:41;;;;;;;11.55;3.50;;;;;;;19.74;100.00;101247.25;5010976;28;20046;-63
2022/10/05 11:30:18;;;;;;;13.52;3.50;;;;;;;19.82;100.00;101231.88;5011929;28;20133;-63
2022/10/05 11:33:25;;;;;;;12.32;3.50;;;;;;;20.31;100.00;101229.53;5012151;28;20030;-64
2022/10/05 11:36:08;;;;;;;12.73;3.20;;;;;;;20.78;100.00;101228.13;5011149;28;20034;-65
2022/10/05 11:39:08;;;;;;;14.40;3.58;;;;;;;20.40;100.00;101228.38;5011732;28;20190;-65
2022/10/05 11:41:42;;;;;;;14.88;3.40;;;;;;;20.94;100.00;101218.69;4951034;29;20058;-64
2022/10/05 11:44:32;;;;;;;12.10;3.45;;;;;;;21.44;100.00;101209.81;4952263;29;20058;-67
2022/10/05 11:47:50;;;;;;;14.95;3.50;;;;;;;21.57;100.00;101203.09;4980263;28;20098;-66
2022/10/05 11:50:38;;;;;;;13.00;3.50;;;;;;;21.50;100.00;101201.50;4903829;29;20415;-65
2022/10/05 11:53:18;;;;;;;11.90;3.40;;;;;;;21.70;100.00;101198.13;4888242;29;20522;-65
2022/10/05 11:56:04;;;;;;;11.05;3.35;;;;;;;21.39;100.00;101192.94;4903678;29;20080;-64
2022/10/05 11:58:41;;;;;;;11.23;3.33;;;;;;;22.78;100.00;101204.75;4901900;29;20048;-65
2022/10/05 12:01:26;;;;;;;12.60;3.20;;;;;;;23.07;100.00;101191.91;4903667;29;20024;-72
2022/10/05 12:04:10;;;;;;;12.80;3.10;;;;;;;23.33;100.00;101180.00;4901938;29;20036;-71
2022/10/05 12:06:57;;;;;;;8.23;3.10;;;;;;;23.39;97.34;101167.22;4905250;29;20560;-73
2022/10/05 12:12:47;;;;;;;9.40;2.92;;;;;;;23.78;82.64;101163.63;4901274;29;20120;-64
2022/10/05 12:15:24;;;;;;;7.35;2.70;;;;;;;24.73;80.38;101155.56;4903612;29;20028;-71
2022/10/05 12:18:00;;;;;;;9.48;3.10;;;;;;;24.77;70.63;101161.69;4914655;28;20157;-72
2022/10/05 12:20:39;;;;;;;11.45;3.03;;;;;;;25.10;64.83;101155.53;4971483;28;20568;-72